createdAt,value
2018-07-10T00:02:09.040Z,7.47
2018-07-10T00:05:49.077Z,6.90
2018-07-10T00:10:35.820Z,6.63
2018-07-10T00:13:07.328Z,7.30
2018-07-10T00:15:38.030Z,6.47
2018-07-10T00:18:08.672Z,7.00
2018-07-10T00:20:39.712Z,7.10
2018-07-10T00:23:10.592Z,6.30
2018-07-10T00:25:41.157Z,7.73
2018-07-10T00:28:12.088Z,7.40
2018-07-10T00:30:43.150Z,6.47
2018-07-10T00:33:14.143Z,6.90
2018-07-10T00:35:44.698Z,7.03
2018-07-10T00:38:25.948Z,7.50
2018-07-10T00:40:57.429Z,7.17
2018-07-10T00:43:28.147Z,8.50
2018-07-10T00:45:58.966Z,8.83
2018-07-10T00:48:30.419Z,8.13
2018-07-10T00:51:01.628Z,7.73
2018-07-10T00:53:32.649Z,7.67
2018-07-10T00:56:03.367Z,7.80
2018-07-10T00:58:34.350Z,7.90
2018-07-10T01:01:05.210Z,8.03
2018-07-10T01:03:35.790Z,7.67
2018-07-10T01:06:06.590Z,7.57
2018-07-10T01:08:37.850Z,8.33
2018-07-10T01:11:13.014Z,7.57
2018-07-10T01:13:45.042Z,7.20
2018-07-10T01:16:20.986Z,7.80
2018-07-10T01:18:55.463Z,7.40
2018-07-10T01:21:26.462Z,7.10
2018-07-10T01:24:00.700Z,7.37
2018-07-10T01:26:35.731Z,8.50
2018-07-10T01:30:10.813Z,7.50
2018-07-10T01:32:43.141Z,9.03
2018-07-10T01:35:15.133Z,8.30
2018-07-10T01:37:47.616Z,8.97
2018-07-10T01:40:19.039Z,8.73
2018-07-10T01:42:49.511Z,8.23
2018-07-10T01:45:20.904Z,8.27
2018-07-10T01:47:52.254Z,9.30
2018-07-10T01:50:23.161Z,8.33
2018-07-10T01:52:54.369Z,9.00
2018-07-10T01:55:25.788Z,9.00
2018-07-10T01:57:57.910Z,8.93
2018-07-10T02:00:40.589Z,8.03
2018-07-10T02:03:12.375Z,9.07
2018-07-10T02:05:43.922Z,9.30
2018-07-10T02:08:14.847Z,9.40
2018-07-10T02:10:46.778Z,9.43
2018-07-10T02:13:17.115Z,10.40
2018-07-10T02:15:47.851Z,10.67
2018-07-10T02:18:18.603Z,9.83
2018-07-10T02:20:58.480Z,9.43
2018-07-10T02:23:35.496Z,9.37
2018-07-10T02:26:08.124Z,9.27
2018-07-10T02:28:39.106Z,8.63
2018-07-10T02:31:10.068Z,8.77
2018-07-10T02:33:40.745Z,8.43
2018-07-10T02:36:11.084Z,9.03
2018-07-10T02:38:44.572Z,7.97
2018-07-10T02:41:17.903Z,8.27
2018-07-10T02:43:58.750Z,8.57
2018-07-10T02:46:31.289Z,8.30
2018-07-10T02:49:12.632Z,8.77
2018-07-10T02:51:47.155Z,8.27
2018-07-10T02:54:18.274Z,8.93
2018-07-10T02:56:50.332Z,8.80
2018-07-10T02:59:21.308Z,9.30
2018-07-10T03:01:52.232Z,9.63
2018-07-10T03:04:23.171Z,9.80
2018-07-10T03:06:53.343Z,10.23
2018-07-10T03:09:24.485Z,10.47
2018-07-10T03:11:55.554Z,11.17
2018-07-10T03:14:26.257Z,11.07
2018-07-10T03:16:57.420Z,11.60
2018-07-10T03:19:29.600Z,11.33
2018-07-10T03:22:00.658Z,11.33
2018-07-10T03:24:31.652Z,10.90
2018-07-10T03:27:02.585Z,10.97
2018-07-10T03:29:33.581Z,9.90
2018-07-10T03:32:04.626Z,9.83
2018-07-10T03:34:35.863Z,10.47
2018-07-10T03:37:06.981Z,9.37
2018-07-10T03:39:41.012Z,9.60
2018-07-10T03:42:13.611Z,9.07
2018-07-10T03:44:46.162Z,9.90
2018-07-10T03:47:18.863Z,10.47
2018-07-10T03:49:49.804Z,10.40
2018-07-10T03:52:37.958Z,10.97
2018-07-10T03:55:14.485Z,11.33
2018-07-10T03:57:45.774Z,11.57
2018-07-10T04:00:17.361Z,11.13
2018-07-10T04:02:50.662Z,10.80
2018-07-10T04:05:23.018Z,10.93
2018-07-10T04:07:56.316Z,11.47
2018-07-10T04:10:33.032Z,11.83
2018-07-10T04:13:08.858Z,10.83
2018-07-10T04:15:40.197Z,10.97
2018-07-10T04:18:14.509Z,10.40
2018-07-10T04:21:25.907Z,11.47
2018-07-10T04:24:21.958Z,11.03
2018-07-10T04:27:03.841Z,9.63
2018-07-10T04:29:40.575Z,9.60
2018-07-10T04:32:14.249Z,11.43
2018-07-10T04:34:44.997Z,9.80
2018-07-10T04:37:16.041Z,11.10
2018-07-10T04:39:46.659Z,10.37
2018-07-10T04:42:25.660Z,11.27
2018-07-10T04:45:00.915Z,9.93
2018-07-10T04:47:37.554Z,10.80
2018-07-10T04:50:15.471Z,11.37
2018-07-10T04:52:51.524Z,10.80
2018-07-10T04:55:22.503Z,12.17
2018-07-10T04:58:07.883Z,11.97
2018-07-10T05:01:13.738Z,12.40
2018-07-10T05:03:44.837Z,10.93
2018-07-10T05:06:15.549Z,11.87
2018-07-10T05:08:46.540Z,10.83
2018-07-10T05:11:17.589Z,11.73
2018-07-10T05:13:48.531Z,10.63
2018-07-10T05:16:19.690Z,10.70
2018-07-10T05:18:50.582Z,12.10
2018-07-10T05:21:21.720Z,10.77
2018-07-10T05:23:52.316Z,10.00
2018-07-10T05:26:23.012Z,11.03
2018-07-10T05:28:54.763Z,10.40
2018-07-10T05:31:25.854Z,11.07
2018-07-10T05:33:55.929Z,10.97
2018-07-10T05:36:26.686Z,9.77
2018-07-10T05:38:59.893Z,9.73
2018-07-10T05:41:30.959Z,9.27
2018-07-10T05:44:01.895Z,8.77
2018-07-10T05:46:32.820Z,7.77
2018-07-10T05:49:05.372Z,7.67
2018-07-10T05:51:39.528Z,7.27
2018-07-10T05:54:10.734Z,7.53
2018-07-10T05:56:41.778Z,6.77
2018-07-10T05:59:14.225Z,7.27
2018-07-10T06:01:46.938Z,6.83
2018-07-10T06:04:18.914Z,6.83
2018-07-10T06:06:49.438Z,6.87
2018-07-10T06:09:21.260Z,6.37
2018-07-10T06:11:52.372Z,6.50
2018-07-10T06:14:24.331Z,6.57
2018-07-10T06:16:55.095Z,6.40
2018-07-10T06:19:26.510Z,6.63
2018-07-10T06:21:57.148Z,6.50
2018-07-10T06:24:29.272Z,6.77
2018-07-10T06:27:02.800Z,7.60
2018-07-10T06:29:52.756Z,7.60
2018-07-10T06:32:24.067Z,8.37
2018-07-10T06:35:07.635Z,8.47
2018-07-10T06:37:42.829Z,8.23
2018-07-10T06:40:14.007Z,8.90
2018-07-10T06:42:54.371Z,8.47
2018-07-10T06:45:25.568Z,8.33
2018-07-10T06:47:56.665Z,7.30
2018-07-10T06:50:28.036Z,7.77
2018-07-10T06:52:59.554Z,9.00
2018-07-10T06:55:30.028Z,8.97
2018-07-10T06:58:01.538Z,6.90
2018-07-10T07:00:32.135Z,8.80
2018-07-10T07:03:03.391Z,7.17
2018-07-10T07:05:35.117Z,7.77
2018-07-10T07:08:06.447Z,8.03
2018-07-10T07:10:38.151Z,7.70
2018-07-10T07:13:09.189Z,7.97
2018-07-10T07:15:41.113Z,8.53
2018-07-10T07:18:11.428Z,8.93
2018-07-10T07:20:42.289Z,8.00
2018-07-10T07:23:14.268Z,8.30
2018-07-10T07:25:46.395Z,9.00
2018-07-10T07:28:18.542Z,9.33
2018-07-10T07:30:49.689Z,9.27
2018-07-10T07:33:21.891Z,8.63
2018-07-10T07:35:52.997Z,8.30
2018-07-10T07:38:24.048Z,8.87
2018-07-10T07:40:55.349Z,8.57
2018-07-10T07:43:26.350Z,8.63
2018-07-10T07:45:58.248Z,8.43
2018-07-10T07:48:28.849Z,7.90
2018-07-10T07:50:59.647Z,8.33
2018-07-10T07:53:30.867Z,7.60
2018-07-10T07:56:02.290Z,7.50
2018-07-10T07:58:33.787Z,8.53
2018-07-10T08:01:04.749Z,7.33
2018-07-10T08:03:35.675Z,8.10
2018-07-10T08:06:07.799Z,8.13
2018-07-10T08:08:38.902Z,7.47
2018-07-10T08:11:10.064Z,7.93
2018-07-10T08:13:41.386Z,8.27
2018-07-10T08:16:13.051Z,7.20
2018-07-10T08:18:44.940Z,7.70
2018-07-10T08:21:16.529Z,7.33
2018-07-10T08:23:48.831Z,7.30
2018-07-10T08:26:20.574Z,7.70
2018-07-10T08:28:52.614Z,7.53
2018-07-10T08:31:23.671Z,6.53
2018-07-10T08:33:56.063Z,6.37
2018-07-10T08:36:27.599Z,6.30
2018-07-10T08:38:59.231Z,7.13
2018-07-10T08:41:35.382Z,6.40
2018-07-10T08:44:07.237Z,7.43
2018-07-10T08:46:39.412Z,6.40
2018-07-10T08:49:12.285Z,7.37
2018-07-10T08:51:43.615Z,6.60
2018-07-10T08:54:14.654Z,4.80
2018-07-10T08:56:46.135Z,5.40
2018-07-10T08:59:17.405Z,5.37
2018-07-10T09:01:49.612Z,5.10
2018-07-10T09:04:21.272Z,4.53
2018-07-10T09:06:52.699Z,4.97
2018-07-10T09:09:23.744Z,4.93
2018-07-10T09:11:55.219Z,5.17
2018-07-10T09:14:26.944Z,4.47
2018-07-10T09:16:58.213Z,4.60
2018-07-10T09:19:31.554Z,4.13
2018-07-10T09:22:11.098Z,4.10
2018-07-10T09:24:51.332Z,3.33
2018-07-10T09:27:23.766Z,4.50
2018-07-10T09:29:54.912Z,4.00
2018-07-10T09:32:30.967Z,4.40
2018-07-10T09:35:02.517Z,4.57
2018-07-10T09:37:39.437Z,4.63
2018-07-10T09:40:16.677Z,3.50
2018-07-10T09:42:55.050Z,3.77
2018-07-10T09:45:29.285Z,2.87
2018-07-10T09:48:00.886Z,3.20
2018-07-10T09:50:32.313Z,3.20
2018-07-10T09:53:04.491Z,3.07
2018-07-10T09:55:35.814Z,3.17
2018-07-10T09:58:08.017Z,3.07
2018-07-10T10:00:44.074Z,3.10
2018-07-10T10:03:16.542Z,3.23
2018-07-10T10:05:48.238Z,3.33
2018-07-10T10:08:19.749Z,3.50
2018-07-10T10:10:51.577Z,3.40
2018-07-10T10:13:23.341Z,3.13
2018-07-10T10:15:55.142Z,3.43
2018-07-10T10:18:28.113Z,3.47
2018-07-10T10:21:00.134Z,3.10
2018-07-10T10:23:31.872Z,3.30
2018-07-10T10:26:03.863Z,3.37
2018-07-10T10:28:35.558Z,3.30
2018-07-10T10:31:07.474Z,3.50
2018-07-10T10:33:39.689Z,3.70
2018-07-10T10:36:15.607Z,3.23
2018-07-10T10:38:48.038Z,3.80
2018-07-10T10:41:20.187Z,3.40
2018-07-10T10:43:51.717Z,3.13
2018-07-10T10:46:24.568Z,3.30
2018-07-10T10:48:58.055Z,2.47
2018-07-10T10:51:29.675Z,2.67
2018-07-10T10:54:01.781Z,2.73
2018-07-10T10:56:33.720Z,2.60
2018-07-10T10:59:05.275Z,2.90
2018-07-10T11:01:38.059Z,2.63
2018-07-10T11:04:12.695Z,2.33
2018-07-10T11:06:49.371Z,2.20
2018-07-10T11:09:25.356Z,2.30
2018-07-10T11:11:58.434Z,1.87
2018-07-10T11:14:30.722Z,1.60
2018-07-10T11:17:03.875Z,1.63
2018-07-10T11:19:52.073Z,1.87
2018-07-10T11:22:26.001Z,1.83
2018-07-10T11:25:06.349Z,2.13
2018-07-10T11:28:08.892Z,2.33
2018-07-10T11:30:39.820Z,1.90
2018-07-10T11:33:12.505Z,2.43
2018-07-10T11:35:44.820Z,2.20
2018-07-10T11:38:18.090Z,2.17
2018-07-10T11:40:50.127Z,2.43
2018-07-10T11:43:37.533Z,2.03
2018-07-10T11:46:08.932Z,2.30
2018-07-10T11:48:41.668Z,2.47
2018-07-10T11:51:14.879Z,2.47
2018-07-10T11:53:46.656Z,2.70
2018-07-10T11:56:17.767Z,2.60
2018-07-10T11:58:48.186Z,2.40
2018-07-10T12:01:19.252Z,2.50
2018-07-10T12:03:51.051Z,2.50
2018-07-10T12:06:25.867Z,2.97
2018-07-10T12:08:58.528Z,2.70
2018-07-10T12:11:32.591Z,2.70
2018-07-10T12:14:09.965Z,2.70
2018-07-10T12:16:41.189Z,2.70
2018-07-10T12:19:12.861Z,3.30
2018-07-10T12:21:43.508Z,3.83
2018-07-10T12:24:15.553Z,3.07
2018-07-10T12:26:45.997Z,3.57
2018-07-10T12:29:17.815Z,3.37
2018-07-10T12:31:49.364Z,4.20
2018-07-10T12:34:20.802Z,3.00
2018-07-10T12:36:52.579Z,3.43
2018-07-10T12:39:24.048Z,3.60
2018-07-10T12:41:56.340Z,4.07
2018-07-10T12:44:28.325Z,3.80
2018-07-10T12:46:59.209Z,3.50
2018-07-10T12:49:30.596Z,3.43
2018-07-10T12:52:02.512Z,3.20
2018-07-10T12:54:34.147Z,3.70
2018-07-10T12:57:05.874Z,3.20
2018-07-10T12:59:38.360Z,3.77
2018-07-10T13:02:10.844Z,3.80
2018-07-10T13:04:43.041Z,4.10
2018-07-10T13:07:13.438Z,4.10
2018-07-10T13:09:45.163Z,4.50
2018-07-10T13:12:16.984Z,4.50
2018-07-10T13:14:48.574Z,4.10
2018-07-10T13:17:20.504Z,4.00
2018-07-10T13:19:53.660Z,4.13
2018-07-10T13:22:25.613Z,3.93
2018-07-10T13:24:57.237Z,4.77
2018-07-10T13:27:29.151Z,3.73
2018-07-10T13:30:00.482Z,3.23
2018-07-10T13:32:32.318Z,3.37
2018-07-10T13:35:04.382Z,4.67
2018-07-10T13:37:39.267Z,3.70
2018-07-10T13:40:10.989Z,3.50
2018-07-10T13:42:50.034Z,4.40
2018-07-10T13:45:22.554Z,4.10
2018-07-10T13:47:54.232Z,3.67
2018-07-10T13:50:29.812Z,4.37
2018-07-10T13:53:01.979Z,4.20
2018-07-10T13:55:33.867Z,4.67
2018-07-10T13:58:12.326Z,4.43
2018-07-10T14:00:46.935Z,4.70
2018-07-10T14:03:18.533Z,4.40
2018-07-10T14:05:50.473Z,4.50
2018-07-10T14:08:21.845Z,4.93
2018-07-10T14:10:53.312Z,5.50
2018-07-10T14:13:24.715Z,6.47
2018-07-10T14:15:56.744Z,5.73
2018-07-10T14:18:28.273Z,5.53
2018-07-10T14:21:08.432Z,5.60
2018-07-10T14:23:39.550Z,5.37
2018-07-10T14:26:10.431Z,5.87
2018-07-10T14:28:41.231Z,6.10
2018-07-10T14:31:11.808Z,5.63
2018-07-10T14:33:43.235Z,6.50
2018-07-10T14:36:13.933Z,6.30
2018-07-10T14:38:45.653Z,5.37
2018-07-10T14:41:20.225Z,5.90
2018-07-10T14:43:51.817Z,6.37
2018-07-10T14:46:25.198Z,6.47
2018-07-10T14:48:59.980Z,6.83
2018-07-10T14:51:44.714Z,6.47
2018-07-10T14:54:16.180Z,6.60
2018-07-10T14:56:48.324Z,6.03
2018-07-10T14:59:20.342Z,6.57
2018-07-10T15:01:51.507Z,6.30
2018-07-10T15:04:32.726Z,6.10
2018-07-10T15:07:06.198Z,6.70
2018-07-10T15:09:37.938Z,6.40
2018-07-10T15:12:10.813Z,6.00
2018-07-10T15:14:43.495Z,7.20
2018-07-10T15:17:20.498Z,6.20
2018-07-10T15:19:52.933Z,6.97
2018-07-10T15:22:28.374Z,6.57
2018-07-10T15:25:02.988Z,6.70
2018-07-10T15:27:37.492Z,6.60
2018-07-10T15:30:12.200Z,6.97
2018-07-10T15:32:44.548Z,7.13
2018-07-10T15:35:18.322Z,7.70
2018-07-10T15:37:59.253Z,6.90
2018-07-10T15:40:30.532Z,6.60
2018-07-10T15:43:02.303Z,7.17
2018-07-10T15:45:33.753Z,6.70
2018-07-10T15:48:05.312Z,6.37
2018-07-10T15:50:36.526Z,5.57
2018-07-10T15:53:07.220Z,5.77
2018-07-10T15:55:38.878Z,6.40
2018-07-10T15:58:10.912Z,6.80
2018-07-10T16:00:43.493Z,6.97
2018-07-10T16:03:14.310Z,7.90
2018-07-10T16:05:46.531Z,7.07
2018-07-10T16:08:21.951Z,6.93
2018-07-10T16:10:58.491Z,7.37
2018-07-10T16:13:31.772Z,7.80
2018-07-10T16:16:02.062Z,7.00
2018-07-10T16:18:32.452Z,7.57
2018-07-10T16:21:04.958Z,8.50
2018-07-10T16:23:36.676Z,7.67
2018-07-10T16:26:11.740Z,8.03
2018-07-10T16:28:44.289Z,8.10
2018-07-10T16:31:18.193Z,8.83
2018-07-10T16:33:49.531Z,9.33
2018-07-10T16:36:20.888Z,8.83
2018-07-10T16:38:52.177Z,9.07
2018-07-10T16:41:28.683Z,8.57
2018-07-10T16:44:05.123Z,9.60
2018-07-10T16:46:37.124Z,9.53
2018-07-10T16:49:19.815Z,9.77
2018-07-10T16:51:57.116Z,8.90
2018-07-10T16:54:28.277Z,9.50
2018-07-10T16:56:59.624Z,10.23
2018-07-10T16:59:31.419Z,9.03
2018-07-10T17:02:02.803Z,10.43
2018-07-10T17:04:34.216Z,9.90
2018-07-10T17:07:12.309Z,10.57
2018-07-10T17:09:42.787Z,9.97
2018-07-10T17:12:13.406Z,10.67
2018-07-10T17:14:52.517Z,11.30
2018-07-10T17:17:22.812Z,11.57
2018-07-10T17:19:53.819Z,11.03
2018-07-10T17:22:24.748Z,11.97
2018-07-10T17:24:56.225Z,11.63
2018-07-10T17:27:34.184Z,11.90
2018-07-10T17:30:05.658Z,12.63
2018-07-10T17:32:37.435Z,11.77
2018-07-10T17:35:07.564Z,11.93
2018-07-10T17:37:44.456Z,12.17
2018-07-10T17:40:15.244Z,11.20
2018-07-10T17:42:47.567Z,11.00
2018-07-10T17:45:21.911Z,11.20
2018-07-10T17:47:52.003Z,11.53
2018-07-10T17:50:22.525Z,10.73
2018-07-10T17:52:53.572Z,10.33
2018-07-10T17:55:24.139Z,10.10
2018-07-10T17:58:01.217Z,9.47
2018-07-10T18:00:31.582Z,9.20
2018-07-10T18:03:02.024Z,8.80
2018-07-10T18:05:32.693Z,9.57
2018-07-10T18:08:02.976Z,9.87
2018-07-10T18:10:33.493Z,9.40
2018-07-10T18:13:03.927Z,9.30
2018-07-10T18:15:34.125Z,8.63
2018-07-10T18:18:04.517Z,8.33
2018-07-10T18:20:34.787Z,9.30
2018-07-10T18:23:05.137Z,9.73
2018-07-10T18:25:35.445Z,8.73
2018-07-10T18:28:05.929Z,9.13
2018-07-10T18:30:36.248Z,10.03
2018-07-10T18:33:06.561Z,9.57
2018-07-10T18:35:36.981Z,10.20
2018-07-10T18:38:07.215Z,10.03
2018-07-10T18:40:37.902Z,10.33
2018-07-10T18:43:08.140Z,11.83
2018-07-10T18:45:38.425Z,11.57
2018-07-10T18:48:08.927Z,12.00
2018-07-10T18:50:39.118Z,12.93
2018-07-10T18:53:09.516Z,12.80
2018-07-10T18:55:39.901Z,12.20
2018-07-10T18:58:16.425Z,11.93
2018-07-10T19:01:26.990Z,11.73
2018-07-10T19:03:57.683Z,12.57
2018-07-10T19:06:28.052Z,12.10
2018-07-10T19:08:58.710Z,12.37
2018-07-10T19:11:29.232Z,12.20
2018-07-10T19:14:01.740Z,12.77
2018-07-10T19:16:32.822Z,13.63
2018-07-10T19:19:04.170Z,12.57
2018-07-10T19:21:39.189Z,12.57
2018-07-10T19:24:16.988Z,12.73
2018-07-10T19:26:49.511Z,14.00
2018-07-10T19:29:55.325Z,12.57
2018-07-10T19:32:26.373Z,12.67
2018-07-10T19:35:00.592Z,13.50
2018-07-10T19:37:32.705Z,11.33
2018-07-10T19:40:02.921Z,13.40
2018-07-10T19:42:34.555Z,13.43
2018-07-10T19:45:05.600Z,12.93
2018-07-10T19:47:35.980Z,13.43
2018-07-10T19:50:20.064Z,14.30
2018-07-10T19:52:54.635Z,12.43
2018-07-10T19:55:29.228Z,14.13
2018-07-10T19:58:11.624Z,14.40
2018-07-10T20:00:47.190Z,14.07
2018-07-10T20:03:59.168Z,15.00
2018-07-10T20:06:36.801Z,14.83
2018-07-10T20:09:09.851Z,14.23
2018-07-10T20:11:54.541Z,16.00
2018-07-10T20:14:26.422Z,14.97
2018-07-10T20:17:03.572Z,14.83
2018-07-10T20:19:55.192Z,15.10
2018-07-10T20:22:29.636Z,16.30
2018-07-10T20:25:06.549Z,16.23
2018-07-10T20:28:42.258Z,15.97
2018-07-10T20:32:21.524Z,16.93
2018-07-10T20:35:02.394Z,18.00
2018-07-10T20:37:32.447Z,18.57
2018-07-10T20:40:02.590Z,20.47
2018-07-10T20:42:38.996Z,19.30
2018-07-10T20:45:09.779Z,19.67
2018-07-10T20:47:52.783Z,18.90
2018-07-10T20:51:37.808Z,19.60
2018-07-10T20:54:27.297Z,19.33
2018-07-10T20:57:05.430Z,20.33
2018-07-10T20:59:45.322Z,21.63
2018-07-10T21:02:27.439Z,21.17
2018-07-10T21:05:07.817Z,20.80
2018-07-10T21:07:58.407Z,20.93
2018-07-10T21:10:48.813Z,21.67
2018-07-10T21:14:27.502Z,22.43
2018-07-10T21:17:05.172Z,20.47
2018-07-10T21:19:45.111Z,22.37
2018-07-10T21:22:26.431Z,21.60
2018-07-10T21:25:06.869Z,23.43
2018-07-10T21:28:48.309Z,23.97
2018-07-10T21:31:31.850Z,23.17
2018-07-10T21:34:15.136Z,22.33
2018-07-10T21:37:53.365Z,21.63
2018-07-10T21:40:37.459Z,22.03
2018-07-10T21:44:19.139Z,22.67
2018-07-10T21:46:52.994Z,21.97
2018-07-10T21:50:00.370Z,21.03
2018-07-10T21:52:31.464Z,22.70
2018-07-10T21:55:03.020Z,21.67
2018-07-10T21:57:38.907Z,19.93
2018-07-10T22:00:10.239Z,20.20
2018-07-10T22:02:41.005Z,19.50
2018-07-10T22:05:11.535Z,21.03
2018-07-10T22:07:42.605Z,21.10
2018-07-10T22:10:13.986Z,21.00
2018-07-10T22:12:47.802Z,20.80
2018-07-10T22:15:19.404Z,19.40
2018-07-10T22:17:50.814Z,20.27
2018-07-10T22:20:22.177Z,20.27
2018-07-10T22:22:53.611Z,18.93
2018-07-10T22:25:24.752Z,20.23
2018-07-10T22:27:56.511Z,20.13
2018-07-10T22:30:32.997Z,20.67
2018-07-10T22:33:04.231Z,19.57
2018-07-10T22:35:34.958Z,21.83
2018-07-10T22:38:06.853Z,22.60
2018-07-10T22:40:38.019Z,20.90
2018-07-10T22:43:08.531Z,22.97
2018-07-10T22:45:39.950Z,21.90
2018-07-10T22:48:11.293Z,20.77
2018-07-10T22:50:42.349Z,21.70
2018-07-10T22:53:12.734Z,22.83
2018-07-10T22:55:44.151Z,24.30
2018-07-10T22:58:15.328Z,23.00
2018-07-10T23:00:46.874Z,22.87
2018-07-10T23:03:21.225Z,22.20
2018-07-10T23:05:54.098Z,22.67
2018-07-10T23:08:31.532Z,22.67
2018-07-10T23:11:04.385Z,22.83
2018-07-10T23:13:38.315Z,23.40
2018-07-10T23:16:09.430Z,23.27
2018-07-10T23:18:41.042Z,24.03
2018-07-10T23:21:14.270Z,24.63
2018-07-10T23:23:45.475Z,22.97
2018-07-10T23:26:18.398Z,23.23
2018-07-10T23:28:54.132Z,24.13
2018-07-10T23:31:28.385Z,24.33
2018-07-10T23:34:13.085Z,24.83
2018-07-10T23:36:45.555Z,24.67
2018-07-10T23:39:18.251Z,24.07
2018-07-10T23:42:52.383Z,24.43
2018-07-10T23:45:28.681Z,24.67
2018-07-10T23:48:05.399Z,24.70
2018-07-10T23:50:38.519Z,24.60
2018-07-10T23:54:15.850Z,25.50
2018-07-10T23:56:47.208Z,24.57
2018-07-10T23:59:18.345Z,26.90
